Terminal Aerodrome Forecast
Issued by NWS

Home | Current Version | Previous Version | Text Only | Print | Product List | Glossary On
Versions: 1 2 3 4 5 6 7 8 9 10 11 12 13 14 15 16 17 18 19 20
670
FTUS46 KMTR 230520
TAFSNS
TAF
KSNS 230520Z 2306/2406 25010KT P6SM -SHRA BKN030
     FM231200 16006KT P6SM VCSH BKN080
     FM232000 27010KT P6SM BKN100
     FM240400 VRB03KT P6SM BKN050=

USA.gov is the U.S. government's official web portal to all federal, state and local government web resources and services.